Portada
METAR-TAF:

METAR-TAF

Aeroports :

Al-Kuwait, Kuwait

latitud: 29-13N, longitud: 047-59E, altitud: 55 m

Observació

L'informe es va fer fa 29 minuts, a les 02:00 UTC
Vent 15 kt del Nord
Temperatura 31°C
Humitat 33%
Pressió 1005 hPa
Visibilitat: 8000 m

METAR: OKKK 260200Z 36015KT 8000 NSC 31/13 Q1005 NOSIG

Hora: 05:29 (02:29 UTC)

Pronòstic

L'informe es va fer fa 9 hores i 29 minuts, a les 17:00 UTC
Pronòstic vàlid del 25 a les 18 UTC al 26 a les 24 UTC
Vent 10 kt del Sud/Sud-Est
Visibilitat: 7000 m
Temporalment
l' 25 a les 21 UTC al 26 a les 01 UTC
Vent 3 kt amb direcció variable
Evolucionant progressivament
l' 26 a les 02 UTC al 26 a les 05 UTC
Vent 8 kt del Nord/Nord-Oest amb ràfegues de 18 kt

TAF: OKKK 251700Z 2518/2624 16010KT 7000 NSC TEMPO 2521/2601 VRB03KT BECMG 2602/2605 34008G18KT

Observacions i pronòstics meteorològics de més de 4000 aeroports (METAR i TAF).

Les estacions disponibles són els punts grocs i vermells al mapa.

Posi el ratolí al punt desitjat per veure el nom de l'estació.

Feu clic per veure les observacions i els pronòstics meteorològics.

Per canviar el mapa: feu clic els botons verds amb una creu de color negre per apropar; al botó verd amb un guió per allunyar la imatge; o en les fletxes verdes per a mapes adjacents.


METAR-TAF: